Time;durP1;ratioP1;P1;durP2;ratioP2;P2;SDS_P1;SDS_P2;PMS_P1;PMS_P2;Temp;Humidity;BMP_temperature;BMP_pressure;BME280_temperature;BME280_humidity;BME280_pressure;Samples;Min_cycle;Max_cycle;Signal;HPM_P1;HPM_P2
2021/06/05 00:01:51;;;;;;;3.00;2.60;;;;;;;13.24;88.44;101591.03;6015181;23;20007;-84
2021/06/05 00:04:17;;;;;;;3.63;2.42;;;;;;;13.19;88.14;101582.63;6015092;23;20010;-86
2021/06/05 00:06:42;;;;;;;3.00;2.58;;;;;;;13.20;88.56;101585.16;6017874;23;20043;-84
2021/06/05 00:09:09;;;;;;;3.90;3.22;;;;;;;13.25;88.50;101591.88;6016571;23;20010;-83
2021/06/05 00:11:34;;;;;;;3.65;2.70;;;;;;;13.22;88.60;101584.13;6016746;23;20007;-82
2021/06/05 00:14:02;;;;;;;3.63;2.60;;;;;;;13.15;88.63;101576.72;6017436;23;20531;-85
2021/06/05 00:16:32;;;;;;;2.80;2.50;;;;;;;13.26;88.58;101588.16;6014835;23;20289;-83
2021/06/05 00:18:58;;;;;;;3.35;2.63;;;;;;;13.19;88.58;101579.91;6013475;23;20206;-85
2021/06/05 00:21:25;;;;;;;2.80;2.42;;;;;;;13.25;88.42;101590.00;6016638;23;20003;-85
2021/06/05 00:23:51;;;;;;;3.20;2.90;;;;;;;13.26;88.60;101585.44;6019925;23;20010;-84
2021/06/05 00:26:17;;;;;;;3.63;2.83;;;;;;;13.26;88.72;101593.56;6017354;23;20007;-84
2021/06/05 00:28:42;;;;;;;2.92;2.53;;;;;;;13.18;88.82;101576.38;6012454;23;20011;-84
2021/06/05 00:31:07;;;;;;;3.15;2.85;;;;;;;13.08;88.91;101570.31;6037859;23;20040;-84
2021/06/05 00:33:33;;;;;;;4.05;2.88;;;;;;;13.13;88.93;101573.34;6014175;23;20054;-85
2021/06/05 00:36:00;;;;;;;2.75;2.53;;;;;;;13.19;89.00;101583.44;6018777;23;20006;-83
2021/06/05 00:38:25;;;;;;;3.33;2.60;;;;;;;13.17;88.97;101579.25;6015990;23;20018;-84
2021/06/05 00:40:54;;;;;;;3.63;2.78;;;;;;;13.19;88.85;101578.03;6017074;23;20003;-83
2021/06/05 00:43:23;;;;;;;3.08;2.78;;;;;;;13.07;89.33;101565.09;6013497;23;20011;-85
2021/06/05 00:45:49;;;;;;;2.92;2.63;;;;;;;13.10;89.33;101562.06;6037755;23;20011;-84
2021/06/05 00:48:16;;;;;;;2.97;2.65;;;;;;;13.23;88.76;101575.00;6013817;23;20097;-83
2021/06/05 00:50:43;;;;;;;3.13;2.70;;;;;;;13.23;88.93;101578.56;6019369;23;20007;-85
2021/06/05 00:53:10;;;;;;;3.72;2.40;;;;;;;13.11;89.11;101563.75;6039967;23;20344;-84
2021/06/05 00:55:38;;;;;;;3.13;2.53;;;;;;;13.20;88.99;101579.75;6017731;23;20018;-84
2021/06/05 00:58:04;;;;;;;3.08;2.20;;;;;;;13.15;89.09;101574.03;6015675;23;20075;-85
2021/06/05 01:00:40;;;;;;;3.42;2.50;;;;;;;13.22;89.32;101573.31;6013736;23;20044;-85
2021/06/05 01:03:06;;;;;;;3.78;2.47;;;;;;;13.26;89.46;101571.94;6013975;23;20010;-84
2021/06/05 01:05:34;;;;;;;2.28;2.08;;;;;;;13.25;88.93;101564.88;6016521;23;20011;-86
2021/06/05 01:08:24;;;;;;;2.60;2.30;;;;;;;13.27;89.18;101570.97;6019000;23;20018;-85
2021/06/05 01:10:53;;;;;;;2.85;2.40;;;;;;;13.23;89.11;101565.06;5999447;23;20015;-84
2021/06/05 01:13:21;;;;;;;2.85;2.30;;;;;;;13.18;89.38;101549.38;6014448;23;20615;-84
2021/06/05 01:15:53;;;;;;;2.88;1.90;;;;;;;13.26;89.64;101571.94;6037653;23;20017;-83
2021/06/05 01:18:47;;;;;;;3.75;1.80;;;;;;;13.18;89.38;101559.34;6014514;23;20037;-87
2021/06/05 01:21:40;;;;;;;2.33;1.75;;;;;;;13.20;89.91;101578.88;6039950;23;20041;-83
2021/06/05 01:24:45;;;;;;;3.53;1.63;;;;;;;13.08;89.20;101572.19;6041459;23;20007;-85
2021/06/05 01:27:14;;;;;;;1.90;1.30;;;;;;;13.08;89.31;101586.53;6033041;23;20053;-86
2021/06/05 01:29:43;;;;;;;1.67;0.90;;;;;;;12.99;88.87;101584.84;6036959;23;20007;-86
2021/06/05 01:32:10;;;;;;;2.78;1.00;;;;;;;12.88;88.46;101583.34;6012048;23;20514;-84
2021/06/05 01:34:40;;;;;;;2.05;0.80;;;;;;;12.77;89.13;101573.75;6014787;23;20010;-84
2021/06/05 01:37:09;;;;;;;3.72;1.13;;;;;;;12.75;88.49;101575.78;6016080;23;20407;-83
2021/06/05 01:39:36;;;;;;;1.15;0.80;;;;;;;12.70;88.90;101569.19;6042612;23;20062;-84
2021/06/05 01:42:06;;;;;;;3.28;1.30;;;;;;;12.38;88.86;101530.41;6040431;23;20030;-84
2021/06/05 01:44:32;;;;;;;3.13;1.40;;;;;;;12.66;88.81;101574.09;6014925;23;20014;-85
2021/06/05 01:46:58;;;;;;;3.17;1.40;;;;;;;12.65;88.74;101580.50;6041883;23;20081;-85
2021/06/05 01:49:23;;;;;;;2.97;1.40;;;;;;;12.49;88.55;101559.78;6017670;23;20002;-84
2021/06/05 01:51:52;;;;;;;3.05;1.20;;;;;;;12.61;88.84;101570.22;6040530;23;20002;-84
2021/06/05 01:54:23;;;;;;;2.03;1.27;;;;;;;12.56;88.70;101573.41;6043210;23;20013;-87
2021/06/05 01:56:56;;;;;;;3.45;1.40;;;;;;;12.52;88.48;101575.63;6040964;23;20105;-83
2021/06/05 01:59:22;;;;;;;1.73;1.10;;;;;;;12.52;88.79;101574.78;6016641;23;20010;-86
2021/06/05 02:01:48;;;;;;;2.70;1.10;;;;;;;12.51;88.14;101575.78;6014313;23;20007;-83
2021/06/05 02:04:14;;;;;;;3.30;1.42;;;;;;;12.38;88.13;101560.09;6015281;23;20013;-85
2021/06/05 02:06:41;;;;;;;2.92;1.30;;;;;;;12.46;87.89;101570.91;6018919;23;20010;-84
2021/06/05 02:09:08;;;;;;;2.63;1.10;;;;;;;12.47;87.97;101572.59;6018023;23;20081;-84
2021/06/05 02:11:40;;;;;;;3.10;1.08;;;;;;;12.41;88.04;101561.59;6039654;23;20006;-85
2021/06/05 02:14:10;;;;;;;3.10;1.20;;;;;;;12.41;87.64;101575.97;6015883;23;20535;-86
2021/06/05 02:16:38;;;;;;;1.90;1.00;;;;;;;12.35;88.17;101567.69;6015913;23;20030;-86
2021/06/05 02:19:11;;;;;;;1.73;1.20;;;;;;;12.38;87.80;101575.44;6039647;23;20013;-85
2021/06/05 02:21:37;;;;;;;;;;;;;;;12.30;88.09;101582.53;6016771;23;20021;-83
2021/06/05 02:24:07;;;;;;;2.25;1.02;;;;;;;12.29;88.38;101575.44;6020443;23;19905;-86
2021/06/05 02:26:35;;;;;;;3.00;1.40;;;;;;;12.23;88.18;101559.94;6016616;23;20035;-85
2021/06/05 02:29:00;;;;;;;2.00;1.13;;;;;;;12.26;88.10;101570.38;6013772;23;20018;-87
2021/06/05 02:31:27;;;;;;;2.72;1.05;;;;;;;12.37;87.81;101580.00;6013510;23;20393;-86
2021/06/05 02:33:53;;;;;;;2.55;1.38;;;;;;;12.21;87.74;101553.84;6013869;23;20447;-86
2021/06/05 02:36:20;;;;;;;6.25;1.80;;;;;;;12.23;87.81;101583.38;6016063;23;20014;-84
2021/06/05 02:38:47;;;;;;;4.00;1.30;;;;;;;12.15;88.10;101586.88;6017849;23;20033;-84
2021/06/05 02:41:15;;;;;;;2.95;1.67;;;;;;;12.09;88.48;101572.22;6017025;23;20010;-85
2021/06/05 02:43:42;;;;;;;3.25;1.40;;;;;;;12.07;88.56;101578.78;6017887;23;20330;-85
2021/06/05 02:46:24;;;;;;;3.60;1.55;;;;;;;12.04;88.31;101581.78;6014952;23;20029;-83
2021/06/05 02:48:51;;;;;;;3.47;1.63;;;;;;;11.99;88.78;101589.56;6016413;23;20014;-87
2021/06/05 02:51:21;;;;;;;3.78;1.38;;;;;;;11.93;88.76;101587.50;6016635;23;20038;-85
2021/06/05 02:53:47;;;;;;;4.65;1.35;;;;;;;11.95;89.01;101583.63;6017617;23;20002;-85
2021/06/05 02:56:13;;;;;;;4.93;1.70;;;;;;;11.90;88.90;101579.75;6016950;23;20113;-83
2021/06/05 02:58:39;;;;;;;3.75;1.73;;;;;;;11.87;88.75;101586.31;6039339;23;20424;-85
2021/06/05 03:01:07;;;;;;;4.50;1.70;;;;;;;11.87;89.07;101583.59;6016755;23;20349;-87
2021/06/05 03:03:32;;;;;;;5.55;1.92;;;;;;;11.83;88.87;101590.31;6019259;23;20046;-83
2021/06/05 03:05:58;;;;;;;2.83;1.63;;;;;;;11.78;88.95;101576.50;6017917;23;20318;-86
2021/06/05 03:08:27;;;;;;;2.90;1.73;;;;;;;11.76;89.11;101578.50;6017865;23;20047;-85
2021/06/05 03:10:53;;;;;;;4.47;1.50;;;;;;;11.82;89.31;101594.84;6041394;23;20006;-85
2021/06/05 03:13:20;;;;;;;2.90;1.63;;;;;;;11.85;89.41;101583.75;6016347;23;20922;-85
2021/06/05 03:15:47;;;;;;;5.53;1.67;;;;;;;11.87;89.17;101589.00;6039734;23;20002;-86
2021/06/05 03:18:13;;;;;;;3.47;1.50;;;;;;;11.85;88.86;101581.06;6015651;23;20002;-85
2021/06/05 03:20:42;;;;;;;2.92;1.50;;;;;;;11.75;89.02;101585.75;6018767;23;20010;-85
2021/06/05 03:23:09;;;;;;;3.45;1.33;;;;;;;11.72;89.12;101588.72;6039580;23;20007;-86
2021/06/05 03:25:35;;;;;;;3.97;1.67;;;;;;;11.69;88.84;101594.44;6016355;23;20348;-83
2021/06/05 03:28:01;;;;;;;4.88;1.75;;;;;;;11.62;89.05;101575.41;6016074;23;20590;-87
2021/06/05 03:30:28;;;;;;;5.05;1.52;;;;;;;11.58;89.68;101587.50;6016383;23;20006;-85
2021/06/05 03:32:53;;;;;;;4.75;1.80;;;;;;;11.56;89.66;101572.50;6016260;23;20006;-85
2021/06/05 03:35:19;;;;;;;5.38;2.13;;;;;;;11.68;89.82;101579.31;6015926;23;20014;-87
2021/06/05 03:37:44;;;;;;;3.25;1.25;;;;;;;11.71;89.53;101586.22;6016742;23;20583;-85
2021/06/05 03:40:12;;;;;;;3.15;1.70;;;;;;;11.74;89.43;101580.50;6015219;23;20377;-85
2021/06/05 03:42:38;;;;;;;4.45;1.60;;;;;;;11.70;89.07;101569.22;6015812;23;20011;-85
2021/06/05 03:45:05;;;;;;;5.32;1.70;;;;;;;11.74;89.63;101567.88;6015426;23;20015;-84
2021/06/05 03:47:31;;;;;;;3.65;1.77;;;;;;;11.70;89.72;101563.84;6015543;23;20217;-84
2021/06/05 03:49:56;;;;;;;3.92;1.65;;;;;;;11.69;89.49;101564.81;6016121;23;20007;-85
2021/06/05 03:52:25;;;;;;;3.72;1.73;;;;;;;11.68;89.23;101563.16;6017155;23;20003;-85
2021/06/05 03:54:52;;;;;;;3.38;1.45;;;;;;;11.71;89.93;101568.19;6018747;23;20062;-84
2021/06/05 03:57:18;;;;;;;5.70;1.98;;;;;;;11.65;89.72;101569.69;6015716;23;20011;-84
2021/06/05 03:59:43;;;;;;;6.18;2.08;;;;;;;11.70;89.63;101585.38;6039569;23;20030;-85
2021/06/05 04:02:09;;;;;;;4.50;2.13;;;;;;;11.65;89.69;101583.16;6017066;23;20013;-86
2021/06/05 04:04:34;;;;;;;5.40;1.67;;;;;;;11.65;89.58;101582.34;6016776;23;20065;-85
2021/06/05 04:07:00;;;;;;;3.25;1.63;;;;;;;11.58;89.77;101573.22;6040432;23;20421;-85
2021/06/05 04:09:25;;;;;;;2.55;1.60;;;;;;;11.72;89.35;101594.13;6042285;23;20010;-84
2021/06/05 04:11:50;;;;;;;3.63;1.42;;;;;;;11.66;89.16;101575.94;6017488;23;20829;-85
2021/06/05 04:14:16;;;;;;;4.03;2.17;;;;;;;11.60;88.79;101581.97;6015314;23;20007;-86
2021/06/05 04:16:42;;;;;;;4.35;1.77;;;;;;;11.56;88.96;101575.22;6017704;23;20066;-85
2021/06/05 04:19:07;;;;;;;4.22;1.73;;;;;;;11.59;89.28;101588.34;6016693;23;20030;-85
2021/06/05 04:21:33;;;;;;;2.83;1.50;;;;;;;11.61;89.59;101592.56;6041075;23;20003;-86
2021/06/05 04:23:58;;;;;;;4.22;1.85;;;;;;;11.59;89.14;101588.34;6017664;23;20449;-84
2021/06/05 04:26:24;;;;;;;5.20;1.70;;;;;;;11.57;89.36;101593.06;6015607;23;20013;-86
2021/06/05 04:28:50;;;;;;;3.75;1.83;;;;;;;11.53;89.02;101587.16;6015192;23;20393;-87
2021/06/05 04:31:16;;;;;;;2.30;1.30;;;;;;;11.55;89.21;101592.38;6017744;23;20011;-87
2021/06/05 04:33:42;;;;;;;3.65;1.70;;;;;;;11.57;89.81;101596.59;6018164;23;19999;-84
2021/06/05 04:36:11;;;;;;;4.15;1.65;;;;;;;11.59;89.56;101593.72;6014652;23;20030;-81
2021/06/05 04:38:37;;;;;;;3.15;1.30;;;;;;;11.66;89.85;101594.78;6036008;23;20380;-86
2021/06/05 04:41:04;;;;;;;3.22;1.60;;;;;;;11.70;89.03;101595.31;6015467;23;20003;-83
2021/06/05 04:43:29;;;;;;;2.67;1.40;;;;;;;11.71;89.21;101602.38;6015274;23;20019;-84
2021/06/05 04:45:55;;;;;;;3.45;1.20;;;;;;;11.62;88.72;101596.13;6014630;23;20011;-86
2021/06/05 04:48:20;;;;;;;3.13;1.48;;;;;;;11.60;89.27;101607.06;6015752;23;20094;-85
2021/06/05 04:50:46;;;;;;;5.38;1.80;;;;;;;11.48;89.16;101591.34;6016500;23;20417;-84
2021/06/05 04:53:12;;;;;;;3.80;1.75;;;;;;;11.55;89.12;101606.69;6015912;23;20007;-84
2021/06/05 04:55:39;;;;;;;5.03;1.58;;;;;;;11.56;89.20;101608.38;6016423;23;20051;-85
2021/06/05 04:58:05;;;;;;;2.80;1.48;;;;;;;11.55;88.83;101597.78;6015343;23;20018;-85
2021/06/05 05:00:37;;;;;;;2.72;1.35;;;;;;;11.57;89.24;101599.31;6039574;23;20013;-86
2021/06/05 05:03:03;;;;;;;5.38;1.55;;;;;;;11.59;nan;101602.69;6016764;23;20003;-84
2021/06/05 05:05:29;;;;;;;4.15;1.83;;;;;;;11.58;89.03;101602.84;6016395;23;20086;-85
2021/06/05 05:07:55;;;;;;;2.80;1.67;;;;;;;11.58;88.86;101603.66;6017183;23;20018;-85
2021/06/05 05:10:24;;;;;;;6.70;1.67;;;;;;;11.58;88.78;101603.66;6015714;23;20014;-83
2021/06/05 05:12:49;;;;;;;4.47;1.30;;;;;;;11.57;88.80;101599.31;6041200;23;20002;-84
2021/06/05 05:15:15;;;;;;;6.38;1.83;;;;;;;11.53;88.77;101602.47;6039635;23;20006;-83
2021/06/05 05:17:41;;;;;;;1.98;1.40;;;;;;;11.58;88.49;101608.22;6042272;23;20010;-86
2021/06/05 05:20:10;;;;;;;3.97;1.63;;;;;;;11.65;88.46;101604.72;6019795;23;20425;-83
2021/06/05 05:22:38;;;;;;;2.75;1.58;;;;;;;11.67;88.31;101618.03;6040541;23;20002;-83
2021/06/05 05:25:04;;;;;;;5.03;2.53;;;;;;;11.70;88.20;101608.78;6018612;23;20090;-86
2021/06/05 05:27:30;;;;;;;4.78;1.67;;;;;;;11.68;87.98;101608.94;6018489;23;20018;-86
2021/06/05 05:29:55;;;;;;;3.08;1.55;;;;;;;11.63;87.37;101612.13;6017422;23;19999;-86
2021/06/05 05:32:21;;;;;;;4.38;1.58;;;;;;;11.64;87.79;101618.34;6017525;23;20006;-84
2021/06/05 05:34:46;;;;;;;3.17;1.52;;;;;;;11.62;87.54;101620.38;6016957;23;20019;-86
2021/06/05 05:37:11;;;;;;;4.95;1.58;;;;;;;11.53;87.62;101613.25;6044675;23;20404;-84
2021/06/05 05:39:37;;;;;;;2.25;1.48;;;;;;;11.58;87.41;101619.00;6018533;23;20007;-84
2021/06/05 05:42:03;;;;;;;3.08;1.45;;;;;;;11.58;87.55;101621.69;6017907;23;20007;-85
2021/06/05 05:44:28;;;;;;;3.78;1.52;;;;;;;11.63;87.89;101619.34;6017444;23;20148;-85
2021/06/05 05:46:54;;;;;;;4.03;1.38;;;;;;;11.70;87.94;101628.50;6041233;23;20166;-85
2021/06/05 05:49:20;;;;;;;2.45;1.42;;;;;;;11.77;87.60;101623.28;6017021;23;20093;-84
2021/06/05 05:51:46;;;;;;;4.05;1.63;;;;;;;11.76;87.28;101621.59;6018523;23;20065;-83
2021/06/05 05:54:11;;;;;;;5.47;1.70;;;;;;;11.77;86.94;101625.97;6017766;23;20385;-83
2021/06/05 05:56:36;;;;;;;4.95;1.70;;;;;;;11.81;86.64;101633.59;6019402;23;20003;-82
2021/06/05 05:59:03;;;;;;;2.55;1.20;;;;;;;11.81;86.43;101635.44;6040689;23;20074;-84
2021/06/05 06:01:29;;;;;;;3.72;1.77;;;;;;;11.82;86.54;101629.88;6016975;23;20139;-86
2021/06/05 06:03:56;;;;;;;6.82;1.60;;;;;;;11.76;86.16;101633.22;6016862;23;20014;-85
2021/06/05 06:06:22;;;;;;;3.47;1.55;;;;;;;11.78;86.27;101630.38;6018747;23;20018;-85
2021/06/05 06:08:48;;;;;;;3.13;1.50;;;;;;;11.83;86.11;101642.34;6040914;23;20010;-83
2021/06/05 06:11:14;;;;;;;5.18;1.73;;;;;;;11.86;86.45;101647.44;6018068;23;20417;-83
2021/06/05 06:13:40;;;;;;;4.38;1.67;;;;;;;11.86;86.19;101633.13;6017844;23;20031;-83
2021/06/05 06:16:07;;;;;;;3.05;1.48;;;;;;;11.95;85.94;101652.84;6017766;23;20326;-83
2021/06/05 06:18:36;;;;;;;4.05;1.63;;;;;;;11.96;85.88;101657.22;6017459;23;20007;-85
2021/06/05 06:21:04;;;;;;;5.18;1.50;;;;;;;11.90;85.08;101649.81;6018466;23;20011;-84
2021/06/05 06:23:31;;;;;;;4.60;1.75;;;;;;;11.88;85.00;101649.97;6042373;23;20010;-84
2021/06/05 06:25:59;;;;;;;6.18;1.58;;;;;;;11.90;85.05;101656.03;6017099;23;20030;-84
2021/06/05 06:28:32;;;;;;;6.20;1.65;;;;;;;11.94;85.37;101656.56;6016756;23;20010;-84
2021/06/05 06:30:58;;;;;;;2.83;1.65;;;;;;;12.03;85.16;101658.28;6016763;23;20030;-86
2021/06/05 06:33:24;;;;;;;5.80;1.83;;;;;;;12.07;84.67;101665.03;6042014;23;20082;-83
2021/06/05 06:35:51;;;;;;;6.13;2.03;;;;;;;12.00;84.45;101645.13;6017552;23;20015;-83
2021/06/05 06:38:21;;;;;;;5.20;2.15;;;;;;;12.13;84.04;101667.06;6016798;23;20086;-83
2021/06/05 06:40:46;;;;;;;4.53;1.70;;;;;;;12.14;83.93;101660.66;6019672;23;20079;-84
2021/06/05 06:43:17;;;;;;;3.38;1.70;;;;;;;12.21;83.49;101675.19;6040884;23;20402;-84
2021/06/05 06:45:43;;;;;;;4.43;1.77;;;;;;;12.15;83.09;101673.16;6042908;23;20009;-85
2021/06/05 06:48:08;;;;;;;5.85;1.95;;;;;;;12.19;82.96;101681.75;6042671;23;20007;-84
2021/06/05 06:50:34;;;;;;;6.13;1.90;;;;;;;12.21;82.61;101690.53;6017288;23;20106;-84
2021/06/05 06:52:59;;;;;;;5.75;1.83;;;;;;;12.22;82.66;101686.81;6017124;23;20005;-85
2021/06/05 06:55:25;;;;;;;6.63;1.70;;;;;;;12.25;82.11;101687.34;6016129;23;20002;-84
2021/06/05 06:57:51;;;;;;;6.28;1.80;;;;;;;12.23;81.72;101675.88;6017275;23;20013;-84
2021/06/05 07:00:28;;;;;;;6.57;1.90;;;;;;;12.29;81.20;101680.59;6043123;23;20003;-86
2021/06/05 07:02:54;;;;;;;6.95;1.70;;;;;;;12.29;80.63;101682.47;6017352;23;20014;-83
2021/06/05 07:05:19;;;;;;;4.95;2.00;;;;;;;12.15;80.34;101658.84;6040575;23;20006;-86
2021/06/05 07:07:45;;;;;;;6.88;2.10;;;;;;;12.26;79.59;101672.84;6015796;23;20041;-85
2021/06/05 07:10:12;;;;;;;4.95;1.80;;;;;;;12.26;79.44;101667.44;6017921;23;20018;-85
2021/06/05 07:12:38;;;;;;;8.98;1.80;;;;;;;12.35;78.96;101671.00;6041823;23;20099;-84
2021/06/05 07:15:05;;;;;;;6.93;2.17;;;;;;;12.42;78.31;101673.91;6017060;23;20093;-85
2021/06/05 07:17:30;;;;;;;7.00;1.98;;;;;;;12.60;79.14;101680.00;6019675;23;20007;-85
2021/06/05 07:19:56;;;;;;;4.78;1.80;;;;;;;12.74;79.14;101678.50;6040950;23;20014;-85
2021/06/05 07:22:21;;;;;;;7.05;1.77;;;;;;;12.91;78.40;101677.50;6018236;23;20434;-84
2021/06/05 07:24:47;;;;;;;6.35;1.75;;;;;;;12.87;78.16;101664.50;6018610;23;20511;-85
2021/06/05 07:27:12;;;;;;;6.25;2.03;;;;;;;12.95;77.70;101673.44;6016964;23;20385;-85
2021/06/05 07:29:38;;;;;;;6.95;1.70;;;;;;;12.94;76.27;101673.63;6016984;23;20105;-85
2021/06/05 07:32:05;;;;;;;8.63;1.75;;;;;;;13.00;76.49;101682.88;6040972;23;20027;-85
2021/06/05 07:34:31;;;;;;;6.47;1.70;;;;;;;13.01;75.33;101687.25;6018175;23;20010;-85
2021/06/05 07:37:03;;;;;;;5.28;1.50;;;;;;;12.95;75.42;101691.50;6019125;23;20011;-85
2021/06/05 07:39:30;;;;;;;6.18;1.80;;;;;;;12.95;75.63;101684.22;6015977;23;20003;-85
2021/06/05 07:41:59;;;;;;;4.90;1.95;;;;;;;12.96;75.47;101685.06;6017234;23;20014;-86
2021/06/05 07:44:25;;;;;;;4.22;1.70;;;;;;;12.98;75.24;101689.28;6019034;23;20037;-86
2021/06/05 07:46:56;;;;;;;5.28;1.83;;;;;;;13.00;74.42;101699.09;6017136;23;20003;-85
2021/06/05 07:49:23;;;;;;;3.35;1.30;;;;;;;12.91;73.65;101682.91;5993798;23;20110;-85
2021/06/05 07:51:49;;;;;;;4.20;1.70;;;;;;;12.90;74.14;101674.94;6016635;23;20028;-84
2021/06/05 07:54:14;;;;;;;7.35;1.83;;;;;;;13.06;73.78;101691.16;6041612;23;20445;-86
2021/06/05 07:56:40;;;;;;;6.05;1.58;;;;;;;13.14;72.70;101688.44;6042549;23;20011;-85
2021/06/05 07:59:05;;;;;;;7.57;1.83;;;;;;;13.15;72.88;101683.88;6040519;23;20010;-85
2021/06/05 08:01:31;;;;;;;8.15;2.03;;;;;;;13.06;72.34;101666.84;6017616;23;20011;-85
2021/06/05 08:03:56;;;;;;;4.88;1.35;;;;;;;13.10;71.93;101664.66;6041056;23;20007;-85
2021/06/05 08:06:22;;;;;;;3.80;1.38;;;;;;;13.25;71.00;101697.22;6017877;23;20007;-85
2021/06/05 08:08:48;;;;;;;8.55;1.63;;;;;;;13.33;71.96;101694.53;6017169;23;20336;-85
2021/06/05 08:11:15;;;;;;;6.47;1.52;;;;;;;13.43;72.31;101703.28;6017360;23;20033;-85
2021/06/05 08:13:40;;;;;;;6.38;1.55;;;;;;;13.43;71.27;101684.38;6040801;23;19999;-85
2021/06/05 08:16:06;;;;;;;5.53;1.60;;;;;;;13.52;70.00;101702.28;6041691;23;20026;-84
2021/06/05 08:18:32;;;;;;;4.47;1.67;;;;;;;13.57;69.47;101699.88;6041232;23;19999;-84
2021/06/05 08:21:01;;;;;;;6.55;1.70;;;;;;;13.60;69.46;101707.66;6015788;23;20109;-84
2021/06/05 08:23:28;;;;;;;4.40;1.58;;;;;;;13.61;69.38;101709.34;6014625;23;20058;-84
2021/06/05 08:25:55;;;;;;;5.20;1.50;;;;;;;13.56;68.72;101710.88;6017318;23;20395;-84
2021/06/05 08:28:24;;;;;;;5.68;2.05;;;;;;;13.54;69.19;101713.72;6015893;23;20518;-85
2021/06/05 08:30:51;;;;;;;3.60;1.42;;;;;;;13.58;68.95;101708.84;6016450;23;20404;-84
2021/06/05 08:33:17;;;;;;;6.57;1.83;;;;;;;13.59;68.25;101703.25;6014985;23;20321;-85
2021/06/05 08:35:43;;;;;;;5.45;1.45;;;;;;;13.62;67.73;101712.88;6015269;23;20014;-86
2021/06/05 08:38:11;;;;;;;5.63;1.58;;;;;;;13.66;67.63;101703.41;6014352;23;20017;-86
2021/06/05 08:43:26;;;;;;;4.97;1.60;;;;;;;13.69;67.22;101669.81;6066482;23;20396;-84
2021/06/05 08:45:52;;;;;;;9.00;2.00;;;;;;;13.97;66.86;101714.31;6013890;23;20015;-84
2021/06/05 08:48:19;;;;;;;4.80;1.92;;;;;;;14.03;67.37;101708.19;6014317;23;20069;-86
2021/06/05 08:50:45;;;;;;;6.00;1.10;;;;;;;14.03;66.74;101710.06;6040572;23;20014;-85
2021/06/05 08:53:21;;;;;;;7.78;2.00;;;;;;;14.00;66.19;101710.41;6016109;23;20007;-84
2021/06/05 08:55:58;;;;;;;3.30;1.20;;;;;;;13.96;65.03;101707.19;6040125;23;20089;-84
2021/06/05 08:58:35;;;;;;;5.30;1.45;;;;;;;13.82;64.41;101716.03;6038251;23;20010;-84
2021/06/05 09:01:26;;;;;;;4.80;1.48;;;;;;;13.83;64.52;101705.03;6016342;23;20017;-86
2021/06/05 09:03:56;;;;;;;7.30;1.77;;;;;;;13.85;65.09;101713.00;6034674;23;20066;-85
2021/06/05 09:06:24;;;;;;;5.53;1.50;;;;;;;13.94;64.90;101711.09;6016926;23;20003;-85
2021/06/05 09:08:50;;;;;;;5.38;1.35;;;;;;;14.00;64.24;101715.81;6015764;23;20478;-85
2021/06/05 09:11:16;;;;;;;5.50;1.40;;;;;;;14.00;64.07;101697.72;6016496;23;20003;-84
2021/06/05 09:13:42;;;;;;;6.85;1.70;;;;;;;14.11;63.33;101714.59;6014909;23;20476;-85
2021/06/05 09:16:20;;;;;;;4.80;1.27;;;;;;;14.14;63.58;101714.25;6039484;23;20017;-84
2021/06/05 09:19:09;;;;;;;4.32;1.73;;;;;;;14.20;63.34;101705.41;6064395;23;20006;-84
2021/06/05 09:21:37;;;;;;;2.58;1.27;;;;;;;14.33;63.21;101710.25;6024930;23;20007;-84
2021/06/05 09:24:13;;;;;;;5.07;1.80;;;;;;;14.43;62.89;101713.59;6043135;23;20033;-84
2021/06/05 09:26:39;;;;;;;5.53;1.60;;;;;;;14.38;62.01;101707.84;6019971;23;20406;-86
2021/06/05 09:29:18;;;;;;;4.88;1.73;;;;;;;14.40;61.44;101713.94;6020887;23;20006;-84
2021/06/05 09:31:56;;;;;;;6.38;2.17;;;;;;;14.57;60.86;101712.00;6044121;23;20007;-83
2021/06/05 09:34:31;;;;;;;6.35;1.33;;;;;;;14.90;60.40;101712.63;6046499;23;20340;-84
2021/06/05 09:36:57;;;;;;;5.68;1.20;;;;;;;15.02;59.90;101705.75;6020743;23;20017;-85
2021/06/05 09:39:48;;;;;;;2.63;1.10;;;;;;;15.14;58.43;101711.59;6043259;23;20006;-85
2021/06/05 09:42:29;;;;;;;3.63;1.30;;;;;;;15.11;57.69;101714.63;6020092;23;20011;-85
2021/06/05 09:44:54;;;;;;;4.00;1.35;;;;;;;15.00;57.19;101718.63;6018575;23;20034;-85
2021/06/05 09:47:27;;;;;;;4.18;1.40;;;;;;;14.79;56.14;101719.31;6042970;23;20041;-84
2021/06/05 09:50:02;;;;;;;5.28;1.88;;;;;;;14.65;56.24;101718.19;6022108;23;20006;-83
2021/06/05 09:52:35;;;;;;;6.00;1.27;;;;;;;14.62;55.91;101726.69;6023071;23;20017;-84
2021/06/05 09:55:13;;;;;;;2.97;1.10;;;;;;;14.45;55.51;101716.97;6025969;23;20516;-84
2021/06/05 09:57:41;;;;;;;7.43;1.70;;;;;;;14.60;55.17;101734.13;6069684;23;20654;-84
2021/06/05 10:00:28;;;;;;;3.92;1.20;;;;;;;14.61;55.25;101732.28;6023574;23;20046;-84
2021/06/05 10:03:17;;;;;;;3.65;1.17;;;;;;;14.58;55.02;101730.78;6024831;23;20015;-84
2021/06/05 10:05:45;;;;;;;3.58;1.27;;;;;;;14.68;55.42;101722.41;6028145;23;20755;-84
2021/06/05 10:08:40;;;;;;;5.75;1.60;;;;;;;15.03;55.12;101723.69;6043911;23;20089;-86
2021/06/05 10:11:11;;;;;;;6.60;1.30;;;;;;;15.39;54.36;101725.75;6011809;23;20014;-85
2021/06/05 10:13:39;;;;;;;3.78;1.10;;;;;;;15.56;53.21;101731.88;6041584;23;20003;-84
2021/06/05 10:16:25;;;;;;;2.58;1.02;;;;;;;15.57;52.41;101723.53;6017391;23;20003;-84
2021/06/05 10:18:55;;;;;;;4.55;1.65;;;;;;;15.81;52.11;101732.47;6041515;23;20014;-84
2021/06/05 10:21:35;;;;;;;2.88;1.42;;;;;;;15.79;51.53;101734.50;6021738;23;20006;-84
2021/06/05 10:24:05;;;;;;;4.47;1.50;;;;;;;15.82;52.17;101724.16;6021552;23;20500;-84
2021/06/05 10:26:38;;;;;;;5.03;1.40;;;;;;;15.82;51.01;101729.56;6019162;23;20013;-85
2021/06/05 10:29:13;;;;;;;2.55;1.10;;;;;;;15.65;50.51;101730.72;6019710;23;20018;-84
2021/06/05 10:31:41;;;;;;;5.15;1.30;;;;;;;15.48;49.99;101740.03;6042942;23;20014;-84
2021/06/05 10:34:42;;;;;;;3.95;1.30;;;;;;;15.38;50.12;101738.44;6018176;23;20006;-84
2021/06/05 10:37:28;;;;;;;3.95;1.40;;;;;;;15.32;50.80;101750.03;6040816;23;20651;-85
2021/06/05 10:39:54;;;;;;;3.35;1.15;;;;;;;15.26;51.51;101739.91;6017204;23;20019;-84
2021/06/05 10:42:27;;;;;;;2.17;1.00;;;;;;;15.20;51.04;101745.22;6015799;23;20025;-85
2021/06/05 10:44:54;;;;;;;5.80;1.23;;;;;;;15.12;51.90;101744.25;6040318;23;20007;-84
2021/06/05 10:47:40;;;;;;;3.30;2.70;;;;;;;15.14;52.17;101755.75;6039000;23;20007;-84
2021/06/05 10:50:22;;;;;;;6.10;2.90;;;;;;;15.24;52.70;101750.09;6019820;23;20014;-85
2021/06/05 10:52:52;;;;;;;2.47;1.10;;;;;;;15.24;52.58;101746.53;6014594;23;20007;-85
2021/06/05 10:56:07;;;;;;;3.40;1.58;;;;;;;15.14;53.07;101746.81;6015218;23;20595;-85
2021/06/05 10:58:36;;;;;;;5.97;1.50;;;;;;;15.04;53.56;101751.63;6026723;23;20010;-86
2021/06/05 11:01:05;;;;;;;4.45;1.65;;;;;;;15.09;54.21;101751.91;6039923;23;20110;-84
2021/06/05 11:03:30;;;;;;;3.20;1.02;;;;;;;15.24;54.13;101760.06;6017051;23;20460;-80
2021/06/05 11:05:58;;;;;;;2.90;1.40;;;;;;;15.34;54.22;101752.53;6066437;23;20007;-78
2021/06/05 11:08:23;;;;;;;4.30;1.30;;;;;;;15.47;54.02;101754.63;6064928;23;20006;-79
2021/06/05 11:11:17;;;;;;;5.57;1.30;;;;;;;15.49;54.16;101741.75;6039511;23;20459;-79
2021/06/05 11:13:42;;;;;;;4.72;1.45;;;;;;;15.61;52.91;101760.09;6063571;23;20009;-82
2021/06/05 11:16:12;;;;;;;3.83;1.60;;;;;;;15.41;53.37;101758.94;6037913;23;20097;-77
2021/06/05 11:18:38;;;;;;;4.15;1.10;;;;;;;15.36;54.52;101764.88;6061219;23;20006;-78
2021/06/05 11:21:21;;;;;;;7.30;3.33;;;;;;;15.24;53.98;101768.22;6060926;23;19998;-79
2021/06/05 11:23:56;;;;;;;8.38;3.05;;;;;;;15.05;54.45;101769.53;6064642;23;20409;-81
2021/06/05 11:26:34;;;;;;;6.30;1.60;;;;;;;14.90;54.63;101775.75;6039498;23;20066;-78
2021/06/05 11:29:00;;;;;;;6.13;2.13;;;;;;;14.76;55.36;101762.97;6063783;23;20017;-78
2021/06/05 11:31:41;;;;;;;5.35;1.40;;;;;;;14.86;55.87;101777.13;6040928;23;20006;-80
2021/06/05 11:34:08;;;;;;;4.50;1.42;;;;;;;14.93;56.24;101774.53;6065496;23;20082;-80
2021/06/05 11:36:44;;;;;;;4.65;2.08;;;;;;;14.95;56.00;101781.47;6040412;23;20161;-80
2021/06/05 11:39:33;;;;;;;5.80;1.80;;;;;;;14.89;55.62;101779.47;6027763;23;20003;-81